Time;durP1;ratioP1;P1;durP2;ratioP2;P2;SDS_P1;SDS_P2;PMS_P1;PMS_P2;Temp;Humidity;BMP_temperature;BMP_pressure;BME280_temperature;BME280_humidity;BME280_pressure;Samples;Min_cycle;Max_cycle;Signal;HPM_P1;HPM_P2
2022/09/17 00:01:27;;;;;;;2.93;2.60;;;;;;;11.12;100.00;95803.88;5013788;28;104335;-63
2022/09/17 00:03:59;;;;;;;2.67;2.47;;;;;;;11.10;100.00;95800.69;5010243;28;101833;-63
2022/09/17 00:06:26;;;;;;;3.30;2.30;;;;;;;11.11;100.00;95807.59;5008949;28;102225;-63
2022/09/17 00:08:54;;;;;;;3.10;2.80;;;;;;;11.10;100.00;95799.88;5008310;28;105305;-63
2022/09/17 00:11:23;;;;;;;2.80;2.60;;;;;;;11.09;100.00;95799.09;5011200;28;102143;-63
2022/09/17 00:13:51;;;;;;;5.03;2.93;;;;;;;11.11;100.00;95801.47;5008416;28;105420;-63
2022/09/17 00:16:27;;;;;;;3.70;2.70;;;;;;;11.09;100.00;95798.28;5009312;28;103069;-63
2022/09/17 00:18:55;;;;;;;3.20;2.90;;;;;;;11.11;100.00;95799.63;5008791;28;101968;-63
2022/09/17 00:21:23;;;;;;;5.10;2.60;;;;;;;11.09;100.00;95807.09;5008752;28;105043;-63
2022/09/17 00:23:55;;;;;;;7.33;2.30;;;;;;;11.09;100.00;95791.13;5011340;28;105755;-63
2022/09/17 00:26:22;;;;;;;4.93;2.50;;;;;;;11.09;100.00;95793.78;5011171;28;102382;-63
2022/09/17 00:28:51;;;;;;;3.37;2.40;;;;;;;11.08;100.00;95786.88;5008140;28;106018;-63
2022/09/17 00:31:18;;;;;;;3.00;2.50;;;;;;;11.09;100.00;95799.09;5021531;28;101912;-63
2022/09/17 00:33:45;;;;;;;4.10;2.30;;;;;;;11.07;100.00;95795.91;5030369;28;102894;-63
2022/09/17 00:36:14;;;;;;;2.37;2.17;;;;;;;11.11;100.00;95798.81;5019940;28;105699;-63
2022/09/17 00:38:41;;;;;;;2.43;2.23;;;;;;;11.10;100.00;95797.22;5013787;28;102266;-63
2022/09/17 00:41:09;;;;;;;2.83;2.10;;;;;;;11.05;100.00;95799.88;5022166;28;105154;-63
2022/09/17 00:43:40;;;;;;;2.20;2.10;;;;;;;11.03;100.00;95804.69;5031469;28;105816;-63
2022/09/17 00:46:21;;;;;;;2.70;1.70;;;;;;;11.01;100.00;95804.16;5032279;27;101800;-63
2022/09/17 00:48:48;;;;;;;2.43;1.90;;;;;;;10.94;100.00;95814.25;5032935;28;102055;-63
2022/09/17 00:51:23;;;;;;;2.10;2.00;;;;;;;10.91;100.00;95826.22;5031144;28;102044;-63
2022/09/17 00:53:50;;;;;;;2.27;1.80;;;;;;;10.92;100.00;95832.34;5031720;28;103967;-63
2022/09/17 00:56:23;;;;;;;2.73;2.10;;;;;;;10.85;100.00;95832.59;5030741;28;105733;-63
2022/09/17 00:58:52;;;;;;;2.20;2.00;;;;;;;10.78;100.00;95841.91;5033346;28;102256;-63
2022/09/17 01:01:19;;;;;;;2.40;2.13;;;;;;;10.76;100.00;95836.06;5019963;28;104742;-63
2022/09/17 01:03:46;;;;;;;2.53;2.20;;;;;;;10.66;100.00;95836.03;5010931;28;105869;-63
2022/09/17 01:06:22;;;;;;;2.40;2.20;;;;;;;10.62;100.00;95842.94;5017292;28;102076;-63
2022/09/17 01:09:22;;;;;;;2.03;1.87;;;;;;;10.40;100.00;95850.34;5012611;28;102653;-63
2022/09/17 01:12:06;;;;;;;2.37;2.17;;;;;;;10.27;100.00;95856.97;5022696;28;102048;-63
2022/09/17 01:14:46;;;;;;;2.00;1.80;;;;;;;10.13;100.00;95855.03;5012770;28;101796;-63
2022/09/17 01:17:22;;;;;;;2.47;2.27;;;;;;;10.18;100.00;95847.09;5012159;28;103169;-63
2022/09/17 01:20:19;;;;;;;2.73;2.53;;;;;;;10.17;100.00;95853.47;5012667;28;102183;-63
2022/09/17 01:23:04;;;;;;;3.73;2.30;;;;;;;10.11;100.00;95854.50;4959530;28;105125;-63
2022/09/17 01:25:45;;;;;;;3.60;2.47;;;;;;;10.14;100.00;95856.66;5019545;28;103782;-63
2022/09/17 01:28:31;;;;;;;3.63;2.20;;;;;;;10.15;100.00;95860.91;5012739;28;101771;-63
2022/09/17 01:31:22;;;;;;;2.73;2.17;;;;;;;10.15;100.00;95859.03;5013812;28;105950;-63
2022/09/17 01:34:01;;;;;;;3.67;2.73;;;;;;;10.16;100.00;95859.84;5012445;28;102164;-63
2022/09/17 01:36:44;;;;;;;2.57;2.37;;;;;;;10.14;100.00;95849.47;5011053;28;106586;-63
2022/09/17 01:39:22;;;;;;;2.70;2.37;;;;;;;10.16;100.00;95847.38;5010320;28;105421;-63
2022/09/17 01:41:55;;;;;;;2.17;2.03;;;;;;;10.13;100.00;95847.06;5011130;28;101769;-63
2022/09/17 01:44:27;;;;;;;3.37;2.30;;;;;;;10.15;100.00;95839.66;5010760;28;105247;-62
2022/09/17 01:47:03;;;;;;;3.60;2.50;;;;;;;10.21;100.00;95843.91;5010820;28;102878;-63
2022/09/17 01:49:33;;;;;;;3.67;2.37;;;;;;;10.21;100.00;95846.56;5011407;28;102351;-63
2022/09/17 01:52:02;;;;;;;2.40;2.20;;;;;;;10.20;100.00;95850.31;5012063;28;103408;-63
2022/09/17 01:54:34;;;;;;;2.50;2.00;;;;;;;10.25;100.00;95852.97;5013315;28;106025;-63
2022/09/17 01:57:06;;;;;;;3.03;1.90;;;;;;;10.26;100.00;95851.91;5012249;28;102382;-63
2022/09/17 01:59:38;;;;;;;2.63;1.73;;;;;;;10.24;100.00;95856.69;5011435;28;102973;-63
2022/09/17 02:02:11;;;;;;;2.50;1.70;;;;;;;10.22;100.00;95848.16;5010838;28;102266;-63
2022/09/17 02:04:45;;;;;;;2.53;1.80;;;;;;;10.24;100.00;95846.84;5013333;28;102989;-63
2022/09/17 02:07:19;;;;;;;1.83;1.70;;;;;;;10.20;100.00;95837.00;5011616;28;102509;-63
2022/09/17 02:09:52;;;;;;;1.80;1.70;;;;;;;10.15;100.00;95843.09;5021567;28;102094;-63
2022/09/17 02:12:24;;;;;;;3.70;1.83;;;;;;;10.15;100.00;95839.66;5010229;28;105420;-63
2022/09/17 02:14:54;;;;;;;2.37;1.97;;;;;;;10.09;100.00;95848.66;5029196;28;102678;-63
2022/09/17 02:17:27;;;;;;;3.57;1.90;;;;;;;10.06;100.00;95843.84;5034053;28;101942;-63
2022/09/17 02:19:55;;;;;;;3.63;1.97;;;;;;;10.08;100.00;95852.38;5013030;28;102742;-63
2022/09/17 02:22:28;;;;;;;2.57;1.93;;;;;;;10.13;100.00;95847.88;5011981;28;101701;-63
2022/09/17 02:25:04;;;;;;;2.00;1.80;;;;;;;10.08;100.00;95847.84;5011340;28;104144;-63
2022/09/17 02:27:41;;;;;;;3.10;2.23;;;;;;;10.03;100.00;95845.16;5009802;28;104926;-63
2022/09/17 02:30:09;;;;;;;2.60;2.00;;;;;;;10.12;100.00;95845.47;5019471;28;101970;-63
2022/09/17 02:32:38;;;;;;;2.43;2.00;;;;;;;10.14;100.00;95841.50;5011543;28;102289;-63
2022/09/17 02:35:06;;;;;;;2.40;2.20;;;;;;;10.18;100.00;95825.81;5009705;28;105917;-63
2022/09/17 02:37:34;;;;;;;2.37;1.90;;;;;;;10.19;100.00;95819.47;5011424;28;103568;-63
2022/09/17 02:40:01;;;;;;;3.60;1.90;;;;;;;10.21;100.00;95809.38;5031482;28;102942;-63
2022/09/17 02:42:36;;;;;;;1.90;1.80;;;;;;;10.21;100.00;95804.06;5031318;27;102156;-63
2022/09/17 02:45:09;;;;;;;2.93;2.00;;;;;;;10.20;100.00;95803.25;5027506;28;101844;-63
2022/09/17 02:48:08;;;;;;;2.20;2.10;;;;;;;10.19;100.00;95806.97;5028302;28;105524;-63
2022/09/17 02:51:08;;;;;;;1.80;1.70;;;;;;;10.17;100.00;95802.97;5018093;28;102318;-63
2022/09/17 02:53:43;;;;;;;5.13;2.23;;;;;;;10.23;100.00;95805.41;5009692;28;105531;-63
2022/09/17 02:56:19;;;;;;;2.13;1.80;;;;;;;10.20;100.00;95800.59;5009157;28;105618;-63
2022/09/17 02:58:52;;;;;;;2.07;1.87;;;;;;;10.17;100.00;95802.97;5015535;28;102650;-63
2022/09/17 03:01:28;;;;;;;3.27;1.90;;;;;;;10.14;100.00;95803.53;5029668;28;103996;-63
2022/09/17 03:04:01;;;;;;;2.30;2.17;;;;;;;10.13;100.00;95802.72;5033891;28;102859;-63
2022/09/17 03:06:29;;;;;;;1.93;1.70;;;;;;;10.13;100.00;95799.25;5031043;28;102297;-63
2022/09/17 03:08:56;;;;;;;3.27;1.87;;;;;;;10.09;100.00;95790.22;5023252;28;103455;-63
2022/09/17 03:11:24;;;;;;;3.93;1.90;;;;;;;10.03;100.00;95797.31;5009535;28;101892;-63
2022/09/17 03:13:51;;;;;;;4.37;1.97;;;;;;;10.02;100.00;95798.41;5012122;28;102739;-63
2022/09/17 03:16:18;;;;;;;4.60;1.90;;;;;;;9.98;100.00;95799.97;5010045;28;102903;-63
2022/09/17 03:18:45;;;;;;;2.10;1.87;;;;;;;9.96;100.00;95801.28;5012456;28;103029;-63
2022/09/17 03:21:14;;;;;;;2.57;2.40;;;;;;;10.00;100.00;95802.38;5029616;28;105490;-63
2022/09/17 03:23:41;;;;;;;2.10;1.90;;;;;;;9.89;100.00;95803.38;5032131;28;105816;-63
2022/09/17 03:26:08;;;;;;;2.17;2.07;;;;;;;9.82;100.00;95805.50;5019338;27;102192;-63
2022/09/17 03:28:35;;;;;;;2.53;2.07;;;;;;;9.80;100.00;95810.25;5013044;28;105265;-63
2022/09/17 03:31:04;;;;;;;2.83;2.20;;;;;;;9.80;100.00;95803.09;5030762;28;101804;-63
2022/09/17 03:33:31;;;;;;;2.30;2.07;;;;;;;9.75;100.00;95800.41;5027299;27;102279;-63
2022/09/17 03:35:58;;;;;;;1.70;1.60;;;;;;;9.72;100.00;95792.16;5009541;28;102513;-63
2022/09/17 03:38:27;;;;;;;2.57;1.90;;;;;;;9.75;100.00;95794.31;5013318;28;103190;-63
2022/09/17 03:40:58;;;;;;;2.20;2.00;;;;;;;9.75;100.00;95792.44;5030561;27;102635;-63
2022/09/17 03:43:25;;;;;;;2.50;2.07;;;;;;;9.77;100.00;95792.19;5029604;28;103166;-63
2022/09/17 03:45:53;;;;;;;2.00;1.60;;;;;;;9.78;100.00;95793.78;5032665;28;101951;-63
2022/09/17 03:48:20;;;;;;;2.20;2.10;;;;;;;9.79;100.00;95792.72;5029329;28;102596;-63
2022/09/17 03:50:46;;;;;;;2.37;2.17;;;;;;;9.78;100.00;95783.97;5030275;28;101778;-63
2022/09/17 03:53:14;;;;;;;2.43;2.20;;;;;;;9.78;100.00;95778.66;5028776;28;105690;-63
2022/09/17 03:55:43;;;;;;;2.73;1.97;;;;;;;9.71;100.00;95777.31;5030070;27;102566;-63
2022/09/17 03:58:10;;;;;;;2.33;2.23;;;;;;;9.74;100.00;95793.50;5026371;28;101831;-63
2022/09/17 04:00:37;;;;;;;4.37;2.00;;;;;;;9.64;100.00;95805.91;5010255;28;102862;-63
2022/09/17 04:03:04;;;;;;;2.10;2.00;;;;;;;9.70;100.00;95812.88;5012247;28;102470;-63
2022/09/17 04:05:31;;;;;;;3.30;1.90;;;;;;;9.68;100.00;95809.66;5030450;28;101745;-63
2022/09/17 04:07:57;;;;;;;3.43;2.07;;;;;;;9.70;100.00;95818.19;5031306;28;103656;-63
2022/09/17 04:10:24;;;;;;;2.43;1.90;;;;;;;9.70;100.00;95828.81;5028379;28;101960;-63
2022/09/17 04:12:53;;;;;;;1.80;1.63;;;;;;;9.60;100.00;95823.44;5029767;28;102314;-63
2022/09/17 04:15:20;;;;;;;2.70;1.90;;;;;;;9.58;100.00;95825.53;5029287;28;102843;-63
2022/09/17 04:17:46;;;;;;;1.90;1.80;;;;;;;9.59;100.00;95827.94;5029634;28;102029;-63
2022/09/17 04:20:14;;;;;;;1.73;1.63;;;;;;;9.57;100.00;95824.75;5028897;28;103693;-63
2022/09/17 04:22:41;;;;;;;1.60;1.50;;;;;;;9.48;100.00;95820.19;5027856;28;105087;-63
2022/09/17 04:25:10;;;;;;;3.80;2.20;;;;;;;9.41;100.00;95820.41;5009672;28;103662;-63
2022/09/17 04:27:36;;;;;;;2.53;2.10;;;;;;;9.46;100.00;95824.94;5009940;28;102356;-63
2022/09/17 04:30:06;;;;;;;3.30;2.20;;;;;;;9.47;100.00;95829.19;5012871;28;103131;-63
2022/09/17 04:32:33;;;;;;;2.50;2.07;;;;;;;9.49;100.00;95833.19;5009858;28;103576;-63
2022/09/17 04:35:00;;;;;;;2.20;2.10;;;;;;;9.44;100.00;95835.81;5007541;28;105719;-63
2022/09/17 04:37:27;;;;;;;2.33;2.13;;;;;;;9.43;100.00;95839.53;5026976;28;102044;-63
2022/09/17 04:39:54;;;;;;;3.07;1.90;;;;;;;9.43;100.00;95854.66;5025321;28;102509;-63
2022/09/17 04:42:21;;;;;;;3.13;2.10;;;;;;;9.44;100.00;95857.03;5029503;28;102620;-63
2022/09/17 04:44:47;;;;;;;2.60;2.17;;;;;;;9.48;100.00;95867.97;5028140;28;101973;-63
2022/09/17 04:47:16;;;;;;;2.50;2.30;;;;;;;9.47;100.00;95858.38;5029656;27;102225;-63
2022/09/17 04:49:43;;;;;;;3.37;2.30;;;;;;;9.48;100.00;95862.66;5028564;28;102532;-63
2022/09/17 04:52:10;;;;;;;4.40;2.20;;;;;;;9.47;100.00;95861.03;5033037;28;101820;-63
2022/09/17 04:54:37;;;;;;;2.23;2.00;;;;;;;9.54;100.00;95856.31;5013984;28;102521;-63
2022/09/17 04:57:05;;;;;;;2.40;2.20;;;;;;;9.50;100.00;95858.69;5024328;28;101820;-63
2022/09/17 04:59:32;;;;;;;2.13;1.93;;;;;;;9.51;100.00;95862.13;5011899;28;105727;-63
2022/09/17 05:01:59;;;;;;;2.40;1.73;;;;;;;9.51;100.00;95870.09;5027465;28;105341;-63
2022/09/17 05:04:27;;;;;;;5.40;1.90;;;;;;;9.48;100.00;95878.59;5027635;28;101926;-63
2022/09/17 05:06:54;;;;;;;3.27;1.97;;;;;;;9.43;100.00;95886.50;5029186;27;102209;-63
2022/09/17 05:09:21;;;;;;;3.17;1.90;;;;;;;9.44;100.00;95894.19;5015359;28;102896;-63
2022/09/17 05:11:48;;;;;;;4.27;2.33;;;;;;;9.50;100.00;95892.38;5009418;28;101827;-63
2022/09/17 05:14:15;;;;;;;2.70;1.80;;;;;;;9.48;100.00;95887.31;5021630;28;103766;-63
2022/09/17 05:16:42;;;;;;;5.17;2.10;;;;;;;9.49;100.00;95893.44;5027975;28;101850;-63
2022/09/17 05:19:09;;;;;;;6.20;2.20;;;;;;;9.50;100.00;95892.38;5028917;28;102284;-63
2022/09/17 05:21:37;;;;;;;2.60;1.87;;;;;;;9.49;100.00;95898.75;5030263;27;102800;-63
2022/09/17 05:24:04;;;;;;;2.20;1.63;;;;;;;9.45;100.00;95901.13;5030546;28;101926;-63
2022/09/17 05:26:31;;;;;;;2.87;1.80;;;;;;;9.52;100.00;95906.19;5032720;28;101838;-63
2022/09/17 05:28:58;;;;;;;2.80;2.43;;;;;;;9.65;100.00;95921.69;5032360;28;102599;-63
2022/09/17 05:31:25;;;;;;;4.10;2.37;;;;;;;9.66;100.00;95929.38;5030873;28;102099;-63
2022/09/17 05:33:52;;;;;;;3.07;2.70;;;;;;;9.59;100.00;95942.09;5033538;28;104851;-62
2022/09/17 05:36:19;;;;;;;2.73;2.53;;;;;;;9.47;100.00;95951.28;5023533;28;102108;-63
2022/09/17 05:38:48;;;;;;;2.90;2.70;;;;;;;9.40;100.00;95950.69;5012501;28;102468;-63
2022/09/17 05:41:14;;;;;;;2.80;2.47;;;;;;;9.41;100.00;95960.25;5011775;28;102689;-63
2022/09/17 05:43:43;;;;;;;2.40;2.30;;;;;;;9.38;100.00;95963.41;5012082;28;102235;-63
2022/09/17 05:46:11;;;;;;;3.60;3.30;;;;;;;9.35;100.00;95956.75;5010622;28;105616;-63
2022/09/17 05:48:38;;;;;;;4.57;3.20;;;;;;;9.27;100.00;95964.38;5011901;28;102661;-63
2022/09/17 05:51:05;;;;;;;3.13;2.63;;;;;;;9.32;100.00;95959.13;5011892;28;101845;-63
2022/09/17 05:53:32;;;;;;;4.93;2.80;;;;;;;9.30;100.00;95962.03;5012159;28;102678;-62
2022/09/17 05:56:06;;;;;;;5.23;2.80;;;;;;;9.28;100.00;95963.34;5014760;28;102475;-63
2022/09/17 05:58:33;;;;;;;3.37;2.80;;;;;;;9.27;100.00;95954.56;5010541;28;105493;-63
2022/09/17 06:01:02;;;;;;;3.27;2.70;;;;;;;9.23;100.00;95955.31;5010214;28;105306;-63
2022/09/17 06:03:29;;;;;;;3.50;2.77;;;;;;;9.36;100.00;95949.59;5016311;28;102423;-63
2022/09/17 06:05:58;;;;;;;4.27;2.90;;;;;;;9.43;100.00;95952.84;5028024;28;102358;-62
2022/09/17 06:08:27;;;;;;;4.27;2.80;;;;;;;9.42;100.00;95948.56;5020966;28;105671;-63
2022/09/17 06:10:54;;;;;;;4.63;2.77;;;;;;;9.41;100.00;95949.63;5011881;28;102082;-63
2022/09/17 06:13:23;;;;;;;3.30;2.90;;;;;;;9.37;100.00;95959.16;5011913;28;102372;-63
2022/09/17 06:15:51;;;;;;;2.80;2.60;;;;;;;9.39;100.00;95955.19;5011169;28;102684;-63
2022/09/17 06:18:18;;;;;;;3.03;2.80;;;;;;;9.49;100.00;95965.09;5015146;28;101784;-63
2022/09/17 06:20:54;;;;;;;3.00;2.80;;;;;;;9.43;100.00;95966.13;5010835;28;102867;-63
2022/09/17 06:23:20;;;;;;;2.80;2.57;;;;;;;9.50;100.00;95962.22;5010242;28;101920;-63
2022/09/17 06:25:52;;;;;;;3.43;2.57;;;;;;;9.58;100.00;95958.25;5011677;28;102274;-63
2022/09/17 06:28:19;;;;;;;4.73;2.77;;;;;;;9.48;100.00;95955.56;5010905;28;102639;-63
2022/09/17 06:30:47;;;;;;;3.50;2.77;;;;;;;9.54;100.00;95954.53;5030060;28;102042;-63
2022/09/17 06:33:15;;;;;;;4.00;2.90;;;;;;;9.59;100.00;95958.00;5031023;27;102308;-63
2022/09/17 06:35:42;;;;;;;4.03;2.90;;;;;;;9.65;100.00;95945.59;5029010;28;103458;-63
2022/09/17 06:38:09;;;;;;;3.80;3.20;;;;;;;9.66;100.00;95947.19;5024091;28;101965;-63
2022/09/17 06:40:36;;;;;;;3.67;3.37;;;;;;;9.73;100.00;95945.09;5033274;28;102990;-63
2022/09/17 06:43:03;;;;;;;5.07;3.80;;;;;;;9.60;100.00;95953.50;5011289;28;101853;-63
2022/09/17 06:45:30;;;;;;;4.07;3.60;;;;;;;9.60;100.00;95945.53;5010147;28;105625;-63
2022/09/17 06:48:03;;;;;;;3.37;3.07;;;;;;;9.66;100.00;95936.56;5026837;28;102645;-63
2022/09/17 06:50:30;;;;;;;3.40;3.10;;;;;;;9.58;100.00;95944.97;5027527;28;101847;-63
2022/09/17 06:52:57;;;;;;;3.17;2.70;;;;;;;9.72;100.00;95941.66;5011352;28;102377;-63
2022/09/17 06:55:24;;;;;;;2.70;2.30;;;;;;;9.71;100.00;95931.28;5010658;28;102564;-63
2022/09/17 06:57:51;;;;;;;4.30;2.67;;;;;;;9.68;100.00;95926.47;5011204;28;102416;-63
2022/09/17 07:00:18;;;;;;;4.10;2.57;;;;;;;9.68;100.00;95921.16;5009776;28;105599;-63
2022/09/17 07:02:55;;;;;;;2.60;2.17;;;;;;;9.62;100.00;95916.88;5012278;28;105418;-63
2022/09/17 07:05:23;;;;;;;3.87;2.43;;;;;;;9.61;100.00;95920.59;5011453;28;102348;-63
2022/09/17 07:07:51;;;;;;;2.83;2.50;;;;;;;9.70;100.00;95919.84;5010276;28;103168;-63
2022/09/17 07:10:18;;;;;;;4.27;2.47;;;;;;;9.61;100.00;95920.59;5009628;28;101896;-63
2022/09/17 07:12:45;;;;;;;2.07;1.90;;;;;;;9.65;100.00;95933.09;5011051;28;102495;-63
2022/09/17 07:15:14;;;;;;;2.50;2.10;;;;;;;9.77;100.00;95943.53;5008866;28;105145;-63
2022/09/17 07:17:43;;;;;;;2.57;2.37;;;;;;;9.82;100.00;95948.88;5010818;28;102083;-63
2022/09/17 07:20:11;;;;;;;5.80;2.43;;;;;;;9.87;100.00;95938.28;5009391;28;103877;-63
2022/09/17 07:22:40;;;;;;;3.20;2.57;;;;;;;9.83;100.00;95950.47;5010347;28;102847;-63
2022/09/17 07:25:08;;;;;;;3.07;2.10;;;;;;;9.89;100.00;95957.41;5016384;28;102016;-63
2022/09/17 07:27:34;;;;;;;3.00;2.30;;;;;;;10.01;100.00;95960.69;5015754;28;105964;-63
2022/09/17 07:30:01;;;;;;;4.23;2.33;;;;;;;10.03;100.00;95962.03;5011272;28;101904;-63
2022/09/17 07:32:30;;;;;;;2.30;2.00;;;;;;;10.05;100.00;95969.78;5028159;28;103065;-63
2022/09/17 07:34:58;;;;;;;3.03;2.30;;;;;;;10.05;100.00;95991.03;5028073;28;101931;-63
2022/09/17 07:37:24;;;;;;;4.23;2.30;;;;;;;10.04;100.00;95992.09;5029986;28;102200;-63
2022/09/17 07:39:53;;;;;;;3.63;2.33;;;;;;;10.04;100.00;95989.44;5028920;28;102292;-63
2022/09/17 07:42:20;;;;;;;3.17;2.00;;;;;;;10.01;100.00;95989.91;5009909;28;102865;-63
2022/09/17 07:44:47;;;;;;;3.70;2.00;;;;;;;10.15;100.00;95989.22;5012974;28;101836;-63
2022/09/17 07:47:13;;;;;;;2.97;1.90;;;;;;;10.11;100.00;95982.03;5009706;28;101729;-63
2022/09/17 07:49:41;;;;;;;3.20;2.03;;;;;;;10.04;100.00;95994.75;5010111;28;101704;-63
2022/09/17 07:52:07;;;;;;;1.63;1.50;;;;;;;10.09;100.00;95976.97;5010407;28;102284;-63
2022/09/17 07:54:35;;;;;;;6.10;2.00;;;;;;;10.14;100.00;95981.53;5009842;28;102907;-63
2022/09/17 07:57:04;;;;;;;4.70;1.67;;;;;;;10.21;100.00;96003.34;5009806;28;101984;-63
2022/09/17 07:59:31;;;;;;;4.17;1.20;;;;;;;10.30;100.00;95999.16;5009926;28;102451;-63
2022/09/17 08:01:58;;;;;;;1.97;1.30;;;;;;;10.34;100.00;96001.03;5008395;28;105431;-63
2022/09/17 08:04:25;;;;;;;2.93;1.30;;;;;;;10.35;100.00;96005.28;5010028;28;101889;-62
2022/09/17 08:06:52;;;;;;;2.87;1.27;;;;;;;10.15;100.00;96001.72;5013070;28;102977;-65
2022/09/17 08:09:18;;;;;;;3.20;1.23;;;;;;;10.34;100.00;96006.34;5008795;28;101893;-65
2022/09/17 08:11:45;;;;;;;2.87;0.93;;;;;;;10.13;100.00;95999.31;5009735;28;101883;-65
2022/09/17 08:14:16;;;;;;;1.87;0.80;;;;;;;10.15;100.00;96009.69;5007894;28;105875;-65
2022/09/17 08:16:44;;;;;;;1.93;0.90;;;;;;;10.18;100.00;96006.50;5010362;28;101695;-65
2022/09/17 08:19:11;;;;;;;2.10;1.03;;;;;;;10.01;100.00;96017.28;5008301;28;105000;-65
2022/09/17 08:21:38;;;;;;;2.00;0.73;;;;;;;10.10;100.00;96007.00;5008021;28;105916;-65
2022/09/17 08:24:06;;;;;;;1.03;1.00;;;;;;;10.10;100.00;96005.16;5008426;28;101977;-65
2022/09/17 08:26:33;;;;;;;0.93;0.90;;;;;;;9.97;100.00;96015.38;5008691;28;105352;-62
2022/09/17 08:29:00;;;;;;;1.27;1.17;;;;;;;10.08;100.00;96011.78;5012617;28;102770;-64
2022/09/17 08:31:29;;;;;;;3.03;1.80;;;;;;;10.00;100.00;96015.69;5009786;28;102375;-65
2022/09/17 08:33:56;;;;;;;1.60;0.90;;;;;;;10.21;100.00;96012.13;5008767;28;102810;-66
2022/09/17 08:36:25;;;;;;;1.33;1.00;;;;;;;10.36;100.00;96014.06;5008385;28;102179;-65
2022/09/17 08:38:53;;;;;;;1.53;1.00;;;;;;;10.50;100.00;96028.47;5008109;28;103978;-63
2022/09/17 08:41:33;;;;;;;1.77;0.80;;;;;;;10.55;100.00;96012.56;5007758;28;105608;-63
2022/09/17 08:44:15;;;;;;;2.63;1.67;;;;;;;10.69;100.00;96024.34;5009824;28;101815;-63
2022/09/17 08:46:49;;;;;;;1.67;1.00;;;;;;;10.72;100.00;96015.81;5009217;28;105230;-63
2022/09/17 08:49:25;;;;;;;3.70;1.40;;;;;;;10.67;100.00;96013.13;5015808;28;105340;-66
2022/09/17 08:52:06;;;;;;;2.60;1.40;;;;;;;10.77;100.00;96005.22;5031548;28;102142;-62
2022/09/17 08:54:41;;;;;;;1.37;1.20;;;;;;;10.70;100.00;96009.97;5017563;28;102971;-66
2022/09/17 08:57:19;;;;;;;2.47;1.57;;;;;;;10.75;100.00;96002.00;5011743;28;102234;-63
2022/09/17 08:59:53;;;;;;;2.17;1.30;;;;;;;10.77;100.00;96010.53;5012710;28;102903;-64
2022/09/17 09:02:36;;;;;;;2.57;1.13;;;;;;;10.61;100.00;96007.00;5011066;28;104101;-63
2022/09/17 09:05:12;;;;;;;2.27;1.53;;;;;;;10.58;100.00;96001.41;5012029;28;101883;-64
2022/09/17 09:07:45;;;;;;;2.83;1.20;;;;;;;10.90;100.00;96004.75;5013042;28;102314;-60
2022/09/17 09:10:19;;;;;;;1.80;1.43;;;;;;;10.88;100.00;96009.50;5011141;28;105204;-61
2022/09/17 09:12:48;;;;;;;5.90;1.20;;;;;;;10.73;100.00;96002.28;5012724;28;101743;-62
2022/09/17 09:15:34;;;;;;;2.23;1.30;;;;;;;10.82;100.00;96010.53;5015420;28;104729;-63
2022/09/17 09:18:13;;;;;;;2.70;1.80;;;;;;;11.37;100.00;96006.19;5011584;28;101920;-61
2022/09/17 09:20:48;;;;;;;3.20;2.10;;;;;;;11.62;100.00;96013.41;5011366;28;105669;-63
2022/09/17 09:23:19;;;;;;;2.33;1.47;;;;;;;11.71;100.00;96012.63;5011232;28;104011;-63
2022/09/17 09:25:55;;;;;;;3.30;1.10;;;;;;;11.47;100.00;96000.06;5019990;28;101843;-62
2022/09/17 09:28:45;;;;;;;3.43;1.53;;;;;;;11.39;100.00;96005.91;5020779;28;105603;-63
2022/09/17 09:31:34;;;;;;;1.67;1.10;;;;;;;11.36;100.00;96009.09;5011714;28;102770;-63
2022/09/17 09:34:04;;;;;;;2.30;1.43;;;;;;;11.56;100.00;96009.13;5020910;28;101824;-62
2022/09/17 09:36:33;;;;;;;3.60;1.40;;;;;;;11.21;100.00;96006.41;5023212;28;102143;-63
2022/09/17 09:39:05;;;;;;;3.03;1.43;;;;;;;11.09;100.00;96008.50;5024896;28;101920;-63
2022/09/17 09:41:40;;;;;;;2.60;1.70;;;;;;;11.34;100.00;96013.91;5026757;28;102410;-60
2022/09/17 09:44:11;;;;;;;1.23;1.07;;;;;;;11.39;100.00;96004.03;5020598;27;103036;-63
2022/09/17 09:47:06;;;;;;;3.57;1.60;;;;;;;11.30;100.00;96008.31;5012503;28;101897;-63
2022/09/17 09:49:50;;;;;;;4.83;1.50;;;;;;;11.26;100.00;96009.88;5011570;28;104550;-63
2022/09/17 09:52:28;;;;;;;3.17;1.20;;;;;;;11.36;100.00;96011.75;5011781;28;103159;-62
2022/09/17 09:55:16;;;;;;;3.30;1.80;;;;;;;11.31;100.00;96017.06;5012412;28;102018;-62
2022/09/17 09:57:47;;;;;;;1.33;1.20;;;;;;;11.18;100.00;96009.59;5015349;28;105713;-64
2022/09/17 10:00:27;;;;;;;4.03;2.47;;;;;;;11.22;100.00;96002.66;5032811;28;106465;-61
2022/09/17 10:03:01;;;;;;;3.10;1.43;;;;;;;11.25;100.00;96002.97;5029956;28;105404;-63
2022/09/17 10:05:30;;;;;;;1.40;1.30;;;;;;;11.22;100.00;95998.16;5010053;28;105722;-60
2022/09/17 10:07:58;;;;;;;4.63;1.53;;;;;;;11.35;100.00;95992.31;5011560;28;101874;-61
2022/09/17 10:10:25;;;;;;;2.57;1.57;;;;;;;11.52;100.00;95994.75;5023357;27;102837;-61
2022/09/17 10:13:06;;;;;;;2.90;1.30;;;;;;;11.28;100.00;95991.00;5011536;28;102731;-65
2022/09/17 10:15:33;;;;;;;2.50;1.27;;;;;;;11.33;100.00;95997.09;5012824;28;101905;-61
2022/09/17 10:18:13;;;;;;;3.70;1.20;;;;;;;11.39;100.00;96003.25;5012201;28;102870;-62
2022/09/17 10:20:55;;;;;;;3.63;1.03;;;;;;;11.23;100.00;96001.63;5031212;28;102594;-62
2022/09/17 10:23:23;;;;;;;3.40;1.60;;;;;;;11.15;100.00;95991.47;5031301;28;103687;-62
2022/09/17 10:25:54;;;;;;;3.63;1.07;;;;;;;11.20;100.00;95991.50;5011072;28;103131;-62
2022/09/17 10:28:35;;;;;;;2.30;1.33;;;;;;;11.20;100.00;95979.00;4998214;28;101857;-62
2022/09/17 10:31:08;;;;;;;3.90;1.80;;;;;;;11.39;100.00;95979.28;5012935;28;105643;-62
2022/09/17 10:33:38;;;;;;;2.30;1.50;;;;;;;11.20;100.00;95983.50;5027735;28;104430;-62
2022/09/17 10:36:08;;;;;;;3.03;1.67;;;;;;;11.19;100.00;95981.91;5026133;28;101726;-62
2022/09/17 10:38:38;;;;;;;3.80;1.40;;;;;;;11.14;100.00;95977.41;5010276;28;105600;-62
2022/09/17 10:41:17;;;;;;;3.33;1.40;;;;;;;11.15;100.00;95978.19;5026344;28;105531;-62
2022/09/17 10:43:45;;;;;;;2.57;1.40;;;;;;;11.13;100.00;95983.75;5031522;27;101963;-62
2022/09/17 10:46:17;;;;;;;2.80;1.17;;;;;;;10.99;100.00;95981.88;5032484;28;105266;-62
2022/09/17 10:48:51;;;;;;;2.03;1.60;;;;;;;10.93;100.00;95982.91;5029360;28;102064;-62
2022/09/17 10:51:25;;;;;;;4.07;1.43;;;;;;;10.91;100.00;95987.72;5026512;28;106510;-62
2022/09/17 10:54:01;;;;;;;3.77;1.40;;;;;;;10.76;100.00;95995.63;5009286;28;105321;-62
2022/09/17 10:56:32;;;;;;;5.17;2.77;;;;;;;10.67;100.00;95999.84;5012101;28;101843;-61
2022/09/17 10:59:18;;;;;;;5.37;2.20;;;;;;;10.59;100.00;95998.50;5011288;28;102558;-62
2022/09/17 11:02:00;;;;;;;3.40;1.50;;;;;;;10.56;100.00;96004.31;5014810;28;105453;-62
2022/09/17 11:04:39;;;;;;;1.63;1.20;;;;;;;10.60;100.00;95999.28;5020337;27;101983;-63
2022/09/17 11:07:28;;;;;;;2.00;1.50;;;;;;;10.61;100.00;96006.19;5016739;28;105328;-62
2022/09/17 11:10:02;;;;;;;4.40;2.50;;;;;;;10.69;100.00;96003.84;5014275;28;102853;-61
2022/09/17 11:12:41;;;;;;;3.23;1.60;;;;;;;10.71;100.00;95995.59;5012051;28;102357;-62
2022/09/17 11:15:22;;;;;;;2.27;1.40;;;;;;;10.67;100.00;95990.00;5011320;28;103006;-63
2022/09/17 11:18:08;;;;;;;5.63;1.70;;;;;;;10.54;100.00;95985.19;5010047;28;102008;-64
2022/09/17 11:21:00;;;;;;;2.03;1.30;;;;;;;10.50;100.00;95999.25;5014305;28;103187;-64
2022/09/17 11:23:48;;;;;;;4.77;1.53;;;;;;;10.36;100.00;96000.78;5021628;28;102034;-63
2022/09/17 11:26:34;;;;;;;4.20;1.70;;;;;;;10.02;100.00;96020.72;5011271;28;101820;-62
2022/09/17 11:29:18;;;;;;;3.00;1.50;;;;;;;9.69;100.00;96034.25;5010020;28;105015;-62
2022/09/17 11:31:54;;;;;;;6.03;1.73;;;;;;;9.47;100.00;96037.00;5010781;28;101745;-62
2022/09/17 11:34:31;;;;;;;5.03;1.80;;;;;;;9.13;100.00;96029.50;5014502;28;101696;-62
2022/09/17 11:37:11;;;;;;;4.73;2.20;;;;;;;8.92;100.00;96039.09;5020278;28;101834;-62
2022/09/17 11:39:48;;;;;;;3.63;2.00;;;;;;;8.98;100.00;96048.72;5011057;28;101659;-62